Aérodrome :
LOGIN :

S'inscrire | Disclaimer

   EN    FR    IT 

 










Légende :    VFR   VFR Marginal   IFR   IFR Intensif   IFR Très Intensif
Visi : 
Plafond : 
>= 8 km
>= 3000ft
5 à 8 km
1000 à 3000 ft
1500m à 5 km
500 à 1000 ft
800 à 1500m
200 à 500 ft
< 800m
< 200 ft
Symboles :   Orages  Brouillard  Fortes neiges  Fortes précipitations  Vent > 20 kt
SIGMETs :   Divers  Orages  Givrage  Turbulence  Onde Orograph.  Cendres Volcan.







- Altitude de l'aérodrome : 1300 ft
- Code IATA : LIG
- Voir les cartes d'approche


LFBL - Limoges

DERNIER METAR :
  • 221730Z AUTO 20006KT CAVOK 23/09 Q1015 NOSIG

METARs EXPIRÉS :
  • 221700Z AUTO 21009KT CAVOK 23/09 Q1015 NOSIG
  • 221630Z AUTO 21010KT CAVOK 23/09 Q1015 NOSIG
  • 221600Z AUTO 21010KT CAVOK 24/10 Q1015 NOSIG
  • 221530Z AUTO 20010KT CAVOK 23/09 Q1016 NOSIG
  • 221500Z AUTO 19009KT 170V230 CAVOK 24/09 Q1016 NOSIG

TAF TAF LFBL
Valide du 22 à 18h jusqu'au 23 à 18h UTC


221700Z 2218/2318 21009KT CAVOK
BECMG 2222/2224 SCT040CB
PROB40
TEMPO 2303/2310 30020G35KT 3000 TSRA BKN012 BKN020CB
BECMG 2310/2312 SCT020
ATIS : +33 5 55 48 40 37
Pas de NOTAMs connus pour ce terrain.



MET'MAP, la Météo Aéronautique d'un coup d'oeil ! - Copyright ORBIFLY Décembre 2007 - Disclaimer

ORBIFLY MET'MAP TEAM :

Programmation & Développement : Alexandra Zaïnal
Conception & Développement : Baudouin d'Aumeries
Co-Programmation & Développement : Marc-Olivier Méhu
Soutien technique & logistique : Manuel Goepfert

Contact : metmap@orbifly.com




SOURCES & CREDITS :

   NOAA